Airport View

Enter AWOS ICAO identifier for current METAR.

ex. KFNL

KLOT 201155Z AUTO 00000KT 2 1/2SM BR OVC038 03/03 A3014 RMK AO2 70003 T00250025 10032 20025

20 Nov 2019 12:12

Frequency: 118.525

Phone: 815-588-4802

Other Area AWOS: KJOT - KC09 - KMDW - KDPA

TAF KMDW 201136Z 2012/2118 00000KT P6SM SCT008 OVC035 TEMPO 2012/2014 4SM BR OVC009 FM201500 18005KT P6SM SCT020 BKN100 FM202100 16008KT P6SM BKN080 FM210400 16012KT P6SM OVC080 FM211000 18015G23KT 6SM -SHRA OVC025 WS020/20065KT TEMPO 2112/2115 2SM SHRA BR OVC015 FM211600 20018G28KT P6SM VCSH OVC010